Terminal Aerodrome Forecast
Issued by NWS Dodge City, KS

Home | Current Version | Previous Version | Graphics & Text | Print | Product List | Glossary Off
Versions: 1 2 3 4 5 6 7 8 9 10 11 12 13 14 15 16 17 18 19 20 21 22 23 24 25 26 27 28 29 30 31 32 33 34 35 36

000
FTUS43 KDDC 291825 AAA
TAFDDC
TAF AMD
KDDC 291825Z 2918/3018 02016G29KT P6SM BKN004
     FM292000 02016G29KT 3SM -SHRA BR SCT005 OVC012
      TEMPO 2922/2901 1 1/2SM TSRA BR OVC003CB
     FM300300 36009KT P6SM VCSH OVC003
     FM300900 30014KT P6SM BKN010
     FM301400 30015G23KT P6SM BKN040=

USA.gov is the U.S. government's official web portal to all federal, state and local government web resources and services.